Time;durP1;ratioP1;P1;durP2;ratioP2;P2;SDS_P1;SDS_P2;PMS_P1;PMS_P2;Temp;Humidity;BMP_temperature;BMP_pressure;BME280_temperature;BME280_humidity;BME280_pressure;Samples;Min_cycle;Max_cycle;Signal;HPM_P1;HPM_P2
2022/07/16 00:03:18;;;;;;;310.80;294.27;;;14.80;99.90;;;;;;5076612;28;20055;-60
2022/07/16 00:05:44;;;;;;;304.67;288.55;;;14.80;99.90;;;;;;5093169;28;20048;-60
2022/07/16 00:08:11;;;;;;;330.98;312.40;;;14.70;99.90;;;;;;5074546;28;20368;-60
2022/07/16 00:10:37;;;;;;;200.00;189.73;;;14.70;99.90;;;;;;5074603;28;20503;-60
2022/07/16 00:13:02;;;;;;;226.73;214.05;;;14.70;99.90;;;;;;5075112;28;20131;-60
2022/07/16 00:15:30;;;;;;;286.25;270.25;;;14.60;99.90;;;;;;5083140;28;20059;-60
2022/07/16 00:20:40;;;;;;;232.90;219.73;;;14.60;99.90;;;;;;5095394;28;20051;-60
2022/07/16 00:23:06;;;;;;;317.73;298.85;;;14.70;99.90;;;;;;5094281;28;20074;-60
2022/07/16 00:25:33;;;;;;;263.15;248.70;;;14.70;99.90;;;;;;5074542;28;20044;-60
2022/07/16 00:27:59;;;;;;;395.50;371.63;;;14.70;99.90;;;;;;5056848;28;20041;-60
2022/07/16 00:30:25;;;;;;;287.05;271.35;;;14.70;99.90;;;;;;5074002;28;20048;-60
2022/07/16 00:32:51;;;;;;;221.55;209.90;;;14.70;99.90;;;;;;5062320;28;20555;-60
2022/07/16 00:35:16;;;;;;;277.30;261.45;;;14.70;99.90;;;;;;5094339;28;20062;-60
2022/07/16 00:37:42;;;;;;;261.60;247.07;;;14.70;99.90;;;;;;5059935;28;20072;-60
2022/07/16 00:40:08;;;;;;;317.38;297.60;;;14.80;99.90;;;;;;5074221;28;20067;-60
2022/07/16 00:42:34;;;;;;;362.65;341.40;;;14.90;99.90;;;;;;5087072;28;20063;-60
2022/07/16 00:45:00;;;;;;;269.45;255.35;;;14.80;99.90;;;;;;5094635;28;20048;-60
2022/07/16 00:47:25;;;;;;;250.02;236.73;;;14.90;99.90;;;;;;5088434;28;20055;-60
2022/07/16 00:49:51;;;;;;;237.85;225.80;;;14.90;99.90;;;;;;5081726;28;20051;-60
2022/07/16 00:52:17;;;;;;;251.95;238.05;;;14.90;99.90;;;;;;5074360;28;20044;-60
2022/07/16 00:54:42;;;;;;;251.25;238.15;;;14.90;99.90;;;;;;5072623;28;20083;-60
2022/07/16 00:57:08;;;;;;;255.75;242.23;;;14.90;99.90;;;;;;5073513;28;20043;-60
2022/07/16 00:59:34;;;;;;;294.23;278.35;;;14.90;99.90;;;;;;5074283;28;20048;-60
2022/07/16 01:02:00;;;;;;;246.27;232.88;;;14.90;99.90;;;;;;5073739;28;20040;-60
2022/07/16 01:04:26;;;;;;;248.82;235.63;;;14.90;99.90;;;;;;5073364;28;20044;-60
2022/07/16 01:06:52;;;;;;;272.17;257.85;;;14.90;99.90;;;;;;5074091;28;20044;-60
2022/07/16 01:09:20;;;;;;;343.00;324.13;;;14.90;99.90;;;;;;5073129;28;20402;-60
2022/07/16 01:11:47;;;;;;;291.05;275.23;;;14.80;99.90;;;;;;5073309;28;20068;-60
2022/07/16 01:14:15;;;;;;;383.67;361.73;;;14.80;99.90;;;;;;5073874;28;20044;-60
2022/07/16 01:16:41;;;;;;;279.08;263.48;;;14.70;99.90;;;;;;5054823;28;20047;-60
2022/07/16 01:19:08;;;;;;;276.52;259.42;;;14.70;99.90;;;;;;5072980;28;20044;-60
2022/07/16 01:21:34;;;;;;;303.02;285.23;;;14.70;99.90;;;;;;5053949;28;20052;-60
2022/07/16 01:24:00;;;;;;;365.92;344.65;;;14.70;99.90;;;;;;5053118;28;20072;-60
2022/07/16 01:26:26;;;;;;;378.85;357.77;;;14.70;99.90;;;;;;5074238;28;20089;-60
2022/07/16 01:28:52;;;;;;;327.40;309.38;;;14.70;99.90;;;;;;5075865;28;20036;-60
2022/07/16 01:31:18;;;;;;;349.27;330.00;;;14.70;99.90;;;;;;5093546;28;20051;-60
2022/07/16 01:33:44;;;;;;;305.52;288.83;;;14.70;99.90;;;;;;5075180;28;20051;-61
2022/07/16 01:36:12;;;;;;;338.65;320.77;;;14.70;99.90;;;;;;5074711;28;20044;-60
2022/07/16 01:38:41;;;;;;;348.80;328.15;;;14.80;99.90;;;;;;5042958;28;20072;-60
2022/07/16 01:41:07;;;;;;;329.77;311.63;;;14.70;99.90;;;;;;5053415;28;20163;-60
2022/07/16 01:43:33;;;;;;;316.42;299.50;;;14.70;99.90;;;;;;5054211;28;20052;-60
2022/07/16 01:45:59;;;;;;;338.30;319.40;;;14.70;99.90;;;;;;5092479;28;20090;-60
2022/07/16 01:48:26;;;;;;;332.45;314.05;;;14.70;99.90;;;;;;5079526;28;20048;-60
2022/07/16 01:50:53;;;;;;;291.58;275.00;;;14.70;99.90;;;;;;5072883;28;20044;-60
2022/07/16 01:53:19;;;;;;;360.63;340.45;;;14.70;99.90;;;;;;5071746;28;20037;-60
2022/07/16 01:55:45;;;;;;;380.52;358.30;;;14.70;99.90;;;;;;5073224;28;20043;-60
2022/07/16 01:58:13;;;;;;;346.90;326.85;;;14.60;99.90;;;;;;5073262;28;20048;-60
2022/07/16 02:00:40;;;;;;;329.55;311.70;;;14.60;99.90;;;;;;5071300;28;20064;-60
2022/07/16 02:03:07;;;;;;;360.40;339.95;;;14.70;99.90;;;;;;5073084;28;20054;-60
2022/07/16 02:05:34;;;;;;;318.13;299.90;;;14.60;99.90;;;;;;5072698;28;20117;-60
2022/07/16 02:07:59;;;;;;;327.17;309.45;;;14.60;99.90;;;;;;5071742;28;20037;-60
2022/07/16 02:10:25;;;;;;;274.77;259.40;;;14.60;99.90;;;;;;5074595;28;20124;-60
2022/07/16 02:12:51;;;;;;;283.55;268.40;;;14.50;99.90;;;;;;5085597;28;20044;-60
2022/07/16 02:15:17;;;;;;;257.45;244.02;;;14.50;99.90;;;;;;5071653;28;20414;-60
2022/07/16 02:17:43;;;;;;;275.42;260.63;;;14.40;99.90;;;;;;5072793;28;20040;-60
2022/07/16 02:20:11;;;;;;;239.30;227.77;;;14.40;99.90;;;;;;5054358;28;20088;-60
2022/07/16 02:22:37;;;;;;;197.88;188.20;;;14.40;99.90;;;;;;5071671;28;20044;-60
2022/07/16 02:25:04;;;;;;;209.65;199.23;;;14.40;99.90;;;;;;5072750;28;20051;-60
2022/07/16 02:27:30;;;;;;;204.73;194.80;;;14.30;99.90;;;;;;5076147;28;20040;-60
2022/07/16 02:29:56;;;;;;;236.63;224.95;;;14.30;99.90;;;;;;5073850;28;20599;-60
2022/07/16 02:32:21;;;;;;;258.75;245.35;;;14.30;99.90;;;;;;5092871;28;20474;-60
2022/07/16 02:34:48;;;;;;;230.27;218.63;;;14.20;99.90;;;;;;5089709;28;20605;-60
2022/07/16 02:37:14;;;;;;;175.40;166.57;;;14.20;99.90;;;;;;5071268;28;20083;-61
2022/07/16 02:39:40;;;;;;;203.65;193.52;;;14.10;99.90;;;;;;5053649;28;20135;-61
2022/07/16 02:42:06;;;;;;;179.73;171.20;;;14.10;99.90;;;;;;5071140;28;20131;-60
2022/07/16 02:44:32;;;;;;;201.95;192.60;;;14.00;99.90;;;;;;5053485;28;20452;-60
2022/07/16 02:46:57;;;;;;;269.30;255.45;;;14.00;99.90;;;;;;5071479;28;20494;-60
2022/07/16 02:49:23;;;;;;;199.10;189.70;;;14.00;99.90;;;;;;5071614;28;20037;-60
2022/07/16 02:51:49;;;;;;;188.10;179.23;;;14.00;99.90;;;;;;5071668;28;20041;-60
2022/07/16 02:54:15;;;;;;;212.55;202.13;;;14.00;99.90;;;;;;5072660;28;20045;-60
2022/07/16 02:56:40;;;;;;;208.35;198.25;;;14.00;99.90;;;;;;5071157;28;20475;-60
2022/07/16 02:59:06;;;;;;;178.15;169.63;;;13.90;99.90;;;;;;5054713;28;20414;-60
2022/07/16 03:01:32;;;;;;;198.90;188.88;;;13.90;99.90;;;;;;5071540;28;20383;-60
2022/07/16 03:03:58;;;;;;;212.77;202.55;;;13.80;99.90;;;;;;5084155;28;20044;-60
2022/07/16 03:06:23;;;;;;;204.18;194.35;;;13.70;99.90;;;;;;5074256;28;20056;-60
2022/07/16 03:08:50;;;;;;;241.13;229.82;;;13.70;99.90;;;;;;5080975;28;20510;-60
2022/07/16 03:11:16;;;;;;;209.75;199.80;;;13.60;99.90;;;;;;5071534;28;20151;-60
2022/07/16 03:13:42;;;;;;;207.68;197.80;;;13.60;99.90;;;;;;5077367;28;20040;-60
2022/07/16 03:16:08;;;;;;;215.30;204.85;;;13.60;99.90;;;;;;5071601;28;20483;-60
2022/07/16 03:18:34;;;;;;;208.65;198.70;;;13.50;99.90;;;;;;5075422;28;20405;-60
2022/07/16 03:20:59;;;;;;;187.40;178.52;;;13.50;99.90;;;;;;5074178;28;20532;-60
2022/07/16 03:23:25;;;;;;;222.30;210.93;;;13.40;99.90;;;;;;5074587;28;20059;-60
2022/07/16 03:25:51;;;;;;;149.95;143.13;;;13.50;99.90;;;;;;5075461;28;20070;-60
2022/07/16 03:28:17;;;;;;;218.50;207.73;;;13.40;99.90;;;;;;5057898;28;20053;-60
2022/07/16 03:30:42;;;;;;;234.25;221.02;;;13.40;99.90;;;;;;5074476;28;20041;-60
2022/07/16 03:33:08;;;;;;;203.73;193.88;;;13.30;99.90;;;;;;5075276;28;20048;-60
2022/07/16 03:35:34;;;;;;;204.27;193.90;;;13.30;99.90;;;;;;5076068;28;20045;-60
2022/07/16 03:40:44;;;;;;;180.45;171.48;;;13.30;99.90;;;;;;5095937;28;20048;-60
2022/07/16 03:43:10;;;;;;;179.40;170.30;;;13.50;99.90;;;;;;5095638;28;20102;-60
2022/07/16 03:45:35;;;;;;;210.73;200.32;;;13.20;99.90;;;;;;5094718;28;20070;-60
2022/07/16 03:48:01;;;;;;;342.27;324.17;;;13.20;99.90;;;;;;5083978;28;20094;-60
2022/07/16 03:50:27;;;;;;;251.38;238.13;;;13.20;99.90;;;;;;5082741;28;20044;-60
2022/07/16 03:52:53;;;;;;;306.95;289.90;;;13.20;99.90;;;;;;5074510;28;20470;-60
2022/07/16 03:55:19;;;;;;;325.42;305.75;;;13.20;99.90;;;;;;5058010;28;20052;-60
2022/07/16 03:57:45;;;;;;;281.15;265.42;;;13.20;99.90;;;;;;5093691;28;20616;-60
2022/07/16 04:00:12;;;;;;;217.48;206.02;;;13.20;99.90;;;;;;5094410;28;20079;-60
2022/07/16 04:02:38;;;;;;;272.23;257.25;;;13.20;99.90;;;;;;5095858;28;20044;-60
2022/07/16 04:05:04;;;;;;;269.90;255.57;;;13.20;99.90;;;;;;5088567;28;20037;-60
2022/07/16 04:07:30;;;;;;;200.73;190.60;;;13.30;99.90;;;;;;5055940;28;20130;-60
2022/07/16 04:09:56;;;;;;;209.55;198.85;;;13.40;99.90;;;;;;5055462;28;20135;-60
2022/07/16 04:12:23;;;;;;;297.13;281.13;;;13.40;99.90;;;;;;5058387;28;20041;-60
2022/07/16 04:14:50;;;;;;;287.42;271.08;;;13.50;99.90;;;;;;5087280;28;20044;-60
2022/07/16 04:17:16;;;;;;;331.85;312.30;;;13.40;99.90;;;;;;5077311;28;20044;-60
2022/07/16 04:19:41;;;;;;;285.60;269.42;;;13.40;99.90;;;;;;5095398;28;20055;-60
2022/07/16 04:22:07;;;;;;;339.58;320.23;;;13.30;99.90;;;;;;5093327;28;20131;-60
2022/07/16 04:24:33;;;;;;;261.60;246.82;;;13.20;99.90;;;;;;5095190;28;20052;-60
2022/07/16 04:26:58;;;;;;;211.00;199.93;;;13.10;99.90;;;;;;5094829;28;20075;-60
2022/07/16 04:29:24;;;;;;;238.82;226.00;;;13.10;99.90;;;;;;5093734;28;20051;-60
2022/07/16 04:31:50;;;;;;;228.00;215.43;;;13.20;99.90;;;;;;5092732;28;20035;-60
2022/07/16 04:34:16;;;;;;;287.10;271.42;;;13.10;99.90;;;;;;5074799;28;20044;-60
2022/07/16 04:36:41;;;;;;;486.85;453.88;;;13.20;99.90;;;;;;5055545;28;20041;-60
2022/07/16 04:39:07;;;;;;;324.58;306.30;;;13.30;99.90;;;;;;5053310;28;20121;-60
2022/07/16 04:41:33;;;;;;;203.65;193.15;;;13.40;99.90;;;;;;5073278;28;20120;-60
2022/07/16 04:43:58;;;;;;;289.08;271.05;;;13.50;99.90;;;;;;5073872;28;20550;-60
2022/07/16 04:46:24;;;;;;;330.80;313.25;;;13.60;99.90;;;;;;5074400;28;20041;-60
2022/07/16 04:48:50;;;;;;;256.30;242.67;;;13.70;99.90;;;;;;5075075;28;20040;-60
2022/07/16 04:51:16;;;;;;;232.93;220.68;;;13.70;99.90;;;;;;5094125;28;20116;-60
2022/07/16 04:53:41;;;;;;;212.07;200.23;;;13.80;99.90;;;;;;5094812;28;20123;-60
2022/07/16 04:56:07;;;;;;;283.67;265.83;;;13.90;99.90;;;;;;5093935;28;20063;-60
2022/07/16 04:58:33;;;;;;;311.25;291.05;;;13.90;99.90;;;;;;5093615;28;20067;-60
2022/07/16 05:00:59;;;;;;;397.10;371.48;;;14.00;99.90;;;;;;5094561;28;20048;-60
2022/07/16 05:03:24;;;;;;;345.60;323.73;;;14.10;99.90;;;;;;5093555;28;20065;-60
2022/07/16 05:05:50;;;;;;;291.38;275.55;;;14.10;99.90;;;;;;5093727;28;20051;-60
2022/07/16 05:08:16;;;;;;;270.23;256.50;;;14.10;99.90;;;;;;5077080;28;20048;-60
2022/07/16 05:10:42;;;;;;;294.13;278.00;;;14.10;99.90;;;;;;5073057;28;20074;-60
2022/07/16 05:13:10;;;;;;;227.55;215.55;;;14.20;99.90;;;;;;5073625;28;20387;-60
2022/07/16 05:15:36;;;;;;;235.32;222.93;;;14.20;99.90;;;;;;5055617;28;20044;-60
2022/07/16 05:18:03;;;;;;;199.75;190.00;;;14.20;99.90;;;;;;5073298;28;20052;-60
2022/07/16 05:20:29;;;;;;;243.52;231.25;;;14.20;99.90;;;;;;5073534;28;20131;-60
2022/07/16 05:22:55;;;;;;;200.77;191.07;;;14.20;99.90;;;;;;5073830;28;20041;-60
2022/07/16 05:25:21;;;;;;;200.43;190.13;;;14.30;99.90;;;;;;5083685;28;20491;-60
2022/07/16 05:27:47;;;;;;;223.55;211.57;;;14.40;99.90;;;;;;5093583;28;20135;-60
2022/07/16 05:30:14;;;;;;;239.68;226.90;;;14.30;99.90;;;;;;5084689;28;20127;-60
2022/07/16 05:32:42;;;;;;;134.05;127.57;;;14.40;99.90;;;;;;5073018;28;20467;-60
2022/07/16 05:35:08;;;;;;;206.13;194.55;;;14.40;99.90;;;;;;5091653;28;20097;-60
2022/07/16 05:37:34;;;;;;;176.23;166.93;;;14.40;99.90;;;;;;5091423;28;20048;-60
2022/07/16 05:40:00;;;;;;;177.63;169.27;;;14.30;99.90;;;;;;5072183;28;20049;-60
2022/07/16 05:42:26;;;;;;;162.82;155.32;;;14.30;99.90;;;;;;5060697;28;20090;-60
2022/07/16 05:44:52;;;;;;;129.45;123.35;;;14.40;99.90;;;;;;5090903;28;20055;-60
2022/07/16 05:47:18;;;;;;;147.55;140.30;;;14.30;99.90;;;;;;5071588;28;20040;-60
2022/07/16 05:49:44;;;;;;;202.90;193.48;;;14.40;99.90;;;;;;5073261;28;20036;-60
2022/07/16 05:52:09;;;;;;;191.63;182.38;;;14.40;99.90;;;;;;5072127;28;20094;-60
2022/07/16 05:54:35;;;;;;;121.90;116.13;;;14.50;99.90;;;;;;5072315;28;20075;-60
2022/07/16 05:57:01;;;;;;;151.93;144.82;;;14.50;99.90;;;;;;5072795;28;20051;-60
2022/07/16 05:59:27;;;;;;;130.77;124.68;;;14.60;99.90;;;;;;5072288;28;20048;-60
2022/07/16 06:01:52;;;;;;;99.05;94.28;;;14.60;99.90;;;;;;5093315;28;20081;-60
2022/07/16 06:04:18;;;;;;;165.32;158.20;;;14.70;99.90;;;;;;5092754;28;20058;-60
2022/07/16 06:06:44;;;;;;;206.60;196.95;;;14.80;99.90;;;;;;5092619;28;20146;-60
2022/07/16 06:09:10;;;;;;;107.22;102.10;;;15.00;99.90;;;;;;5086261;28;20089;-60
2022/07/16 06:11:35;;;;;;;202.95;193.15;;;15.20;99.90;;;;;;5093369;28;20490;-60
2022/07/16 06:14:01;;;;;;;221.93;211.93;;;15.40;99.90;;;;;;5074519;28;20059;-60
2022/07/16 06:16:27;;;;;;;207.13;197.73;;;15.50;99.90;;;;;;5073134;28;20075;-60
2022/07/16 06:18:53;;;;;;;149.55;142.43;;;15.60;99.90;;;;;;5087269;28;20101;-60
2022/07/16 06:21:18;;;;;;;197.93;188.98;;;15.60;99.90;;;;;;5072432;28;20485;-60
2022/07/16 06:23:44;;;;;;;295.23;279.88;;;15.60;99.90;;;;;;5072408;28;20041;-60
2022/07/16 06:26:10;;;;;;;280.67;267.23;;;15.50;99.90;;;;;;5073952;28;20051;-60
2022/07/16 06:28:36;;;;;;;310.45;295.10;;;15.60;99.90;;;;;;5073915;28;20061;-60
2022/07/16 06:31:01;;;;;;;289.60;275.85;;;15.60;99.90;;;;;;5074370;28;20044;-60
2022/07/16 06:33:27;;;;;;;251.18;238.80;;;15.60;99.90;;;;;;5072783;28;20090;-60
2022/07/16 06:35:53;;;;;;;311.13;296.23;;;15.70;99.90;;;;;;5071267;28;20044;-60
2022/07/16 06:38:19;;;;;;;239.75;227.52;;;15.80;99.90;;;;;;5063707;28;20106;-60
2022/07/16 06:40:45;;;;;;;298.17;284.35;;;15.80;99.90;;;;;;5052527;28;20069;-61
2022/07/16 06:43:11;;;;;;;302.13;287.55;;;15.90;99.90;;;;;;5051210;28;20053;-60
2022/07/16 06:45:43;;;;;;;335.90;318.52;;;15.90;99.90;;;;;;5068104;28;20501;-60
2022/07/16 06:48:09;;;;;;;241.55;230.00;;;16.00;99.90;;;;;;5080172;28;20051;-60
2022/07/16 06:50:34;;;;;;;414.15;390.42;;;16.10;99.90;;;;;;5072070;28;20041;-60
2022/07/16 06:53:00;;;;;;;242.20;229.98;;;16.10;99.90;;;;;;5075173;28;20045;-59
2022/07/16 06:55:26;;;;;;;230.65;219.00;;;16.10;99.90;;;;;;5075778;28;20047;-60
2022/07/16 06:57:52;;;;;;;329.88;313.38;;;16.10;99.90;;;;;;5076011;28;20044;-60
2022/07/16 07:00:18;;;;;;;281.23;267.58;;;16.00;99.90;;;;;;5076559;28;20052;-60
2022/07/16 07:02:44;;;;;;;264.08;251.80;;;16.00;99.90;;;;;;5075639;28;20047;-60
2022/07/16 07:05:10;;;;;;;323.08;306.25;;;16.10;99.90;;;;;;5075551;28;20049;-60
2022/07/16 07:07:35;;;;;;;422.02;400.23;;;16.30;99.90;;;;;;5076417;28;20098;-60
2022/07/16 07:10:01;;;;;;;496.73;468.15;;;16.40;99.90;;;;;;5075532;28;20478;-60
2022/07/16 07:12:27;;;;;;;214.75;205.40;;;16.50;99.90;;;;;;5075757;28;20402;-60
2022/07/16 07:14:53;;;;;;;265.10;252.27;;;16.60;99.90;;;;;;5076156;28;20045;-60
2022/07/16 07:17:19;;;;;;;236.70;226.18;;;16.70;99.90;;;;;;5075279;28;20555;-60
2022/07/16 07:19:44;;;;;;;244.75;234.00;;;16.80;99.90;;;;;;5075070;28;20072;-60
2022/07/16 07:22:10;;;;;;;292.95;280.05;;;16.90;99.90;;;;;;5075642;28;20106;-60
2022/07/16 07:24:36;;;;;;;301.42;287.55;;;17.10;99.90;;;;;;5057028;28;20383;-60
2022/07/16 07:27:02;;;;;;;308.98;294.33;;;17.30;99.90;;;;;;5075460;28;20390;-60
2022/07/16 07:29:27;;;;;;;433.15;410.13;;;17.50;99.90;;;;;;5075902;28;20075;-60
2022/07/16 07:31:53;;;;;;;273.17;260.52;;;17.50;99.90;;;;;;5075218;28;20427;-60
2022/07/16 07:34:19;;;;;;;483.23;454.67;;;17.50;99.90;;;;;;5075333;28;20066;-60
2022/07/16 07:36:44;;;;;;;512.00;484.30;;;17.30;99.90;;;;;;5074977;28;20060;-60
2022/07/16 07:39:10;;;;;;;457.05;433.92;;;17.00;99.90;;;;;;5057198;28;20037;-60
2022/07/16 07:41:37;;;;;;;440.27;418.20;;;16.80;99.90;;;;;;5075115;28;20491;-60
2022/07/16 07:44:03;;;;;;;563.50;532.45;;;16.60;99.90;;;;;;5075517;28;20560;-60
2022/07/16 07:46:29;;;;;;;506.13;479.60;;;16.50;99.90;;;;;;5074596;28;20087;-60
2022/07/16 07:48:54;;;;;;;465.75;441.73;;;16.50;99.90;;;;;;5074814;28;20082;-60
2022/07/16 07:51:20;;;;;;;480.50;454.90;;;16.50;99.90;;;;;;5074931;28;20048;-60
2022/07/16 07:53:46;;;;;;;381.30;362.00;;;16.60;99.90;;;;;;5075670;28;20044;-60
2022/07/16 07:56:12;;;;;;;347.92;331.02;;;16.90;99.90;;;;;;5074566;28;20036;-60
2022/07/16 07:58:38;;;;;;;340.67;324.35;;;17.10;99.90;;;;;;5074912;28;20063;-60
2022/07/16 08:01:04;;;;;;;397.52;377.95;;;17.20;99.90;;;;;;5075278;28;20044;-60
2022/07/16 08:03:30;;;;;;;335.23;319.20;;;17.30;99.90;;;;;;5073994;28;20437;-60
2022/07/16 08:05:56;;;;;;;429.33;407.15;;;17.20;99.90;;;;;;5074625;28;20114;-60
2022/07/16 08:08:22;;;;;;;374.33;356.80;;;17.00;99.90;;;;;;5068754;28;20122;-60
2022/07/16 08:10:48;;;;;;;501.33;471.55;;;16.90;99.90;;;;;;5074891;28;20056;-60
2022/07/16 08:13:14;;;;;;;420.30;398.80;;;16.70;99.90;;;;;;5074105;28;20041;-60
2022/07/16 08:15:40;;;;;;;365.45;347.33;;;16.60;99.90;;;;;;5075284;28;20119;-60
2022/07/16 08:18:06;;;;;;;419.60;398.35;;;16.50;99.90;;;;;;5074642;28;20107;-60
2022/07/16 08:20:32;;;;;;;489.08;463.58;;;16.40;99.90;;;;;;5074100;28;20462;-60
2022/07/16 08:22:57;;;;;;;446.77;423.35;;;16.40;99.90;;;;;;5074829;28;20055;-60
2022/07/16 08:28:07;;;;;;;337.83;321.65;;;16.60;99.90;;;;;;5072005;28;20040;-60
2022/07/16 08:30:33;;;;;;;254.27;242.18;;;16.60;99.90;;;;;;5074266;28;20498;-60
2022/07/16 08:32:59;;;;;;;178.48;170.93;;;16.70;99.90;;;;;;5074417;28;20494;-60
2022/07/16 08:35:25;;;;;;;465.55;441.75;;;17.00;99.90;;;;;;5074185;28;20133;-60
2022/07/16 08:37:50;;;;;;;399.08;379.02;;;17.30;99.90;;;;;;5074800;28;20113;-60
2022/07/16 08:40:19;;;;;;;548.80;519.40;;;17.30;99.90;;;;;;5074010;28;20036;-60
2022/07/16 08:42:46;;;;;;;441.45;419.20;;;17.20;99.90;;;;;;5073567;28;20465;-60
2022/07/16 08:45:14;;;;;;;313.88;299.52;;;17.00;99.90;;;;;;5074581;28;20045;-60
2022/07/16 08:47:40;;;;;;;519.22;491.80;;;17.00;99.90;;;;;;5066388;28;20059;-60
2022/07/16 08:50:09;;;;;;;269.67;257.52;;;17.20;99.90;;;;;;5063247;28;20041;-60
2022/07/16 08:52:40;;;;;;;519.80;492.00;;;17.50;99.90;;;;;;5054545;28;20060;-60
2022/07/16 08:55:06;;;;;;;496.33;469.15;;;18.00;99.90;;;;;;5052321;28;20124;-60
2022/07/16 08:57:35;;;;;;;453.63;430.23;;;18.60;99.90;;;;;;5052534;28;20041;-60
2022/07/16 09:00:01;;;;;;;501.85;475.27;;;18.50;99.90;;;;;;5051967;28;20048;-60
2022/07/16 09:02:27;;;;;;;518.30;487.50;;;18.50;99.90;;;;;;5049970;28;20045;-60
2022/07/16 09:04:53;;;;;;;585.65;547.63;;;18.20;99.90;;;;;;5052930;28;20037;-60
2022/07/16 09:07:19;;;;;;;579.85;547.13;;;17.90;99.90;;;;;;5052213;28;20525;-60
2022/07/16 09:09:45;;;;;;;538.90;506.42;;;17.60;99.90;;;;;;5051853;28;20466;-60
2022/07/16 09:12:30;;;;;;;498.25;471.75;;;17.50;99.90;;;;;;5052558;28;20438;-60
2022/07/16 09:14:55;;;;;;;491.35;463.83;;;17.40;99.90;;;;;;5048845;28;20115;-60
2022/07/16 09:17:21;;;;;;;548.22;516.08;;;17.70;99.90;;;;;;5051105;28;20397;-60
2022/07/16 09:19:47;;;;;;;508.60;481.10;;;17.90;99.90;;;;;;5052543;28;20040;-60
2022/07/16 09:22:15;;;;;;;440.38;418.10;;;18.00;99.90;;;;;;5051702;28;20045;-60
2022/07/16 09:24:44;;;;;;;489.13;463.73;;;18.10;99.90;;;;;;5051922;28;20040;-60
2022/07/16 09:27:11;;;;;;;425.35;404.55;;;18.20;99.90;;;;;;5052096;28;20053;-60
2022/07/16 09:29:46;;;;;;;420.42;399.20;;;18.20;99.90;;;;;;5053493;28;20033;-60
2022/07/16 09:32:17;;;;;;;501.40;474.27;;;18.40;99.90;;;;;;5052450;28;20525;-60
2022/07/16 09:34:43;;;;;;;430.45;409.08;;;18.40;99.90;;;;;;5065440;28;20063;-60
2022/07/16 09:37:09;;;;;;;515.20;488.15;;;18.40;99.90;;;;;;5052083;28;20064;-60
2022/07/16 09:39:35;;;;;;;483.85;458.45;;;18.30;99.90;;;;;;5052351;28;20045;-60
2022/07/16 09:42:01;;;;;;;481.25;455.63;;;18.20;99.90;;;;;;5052296;28;20057;-60
2022/07/16 09:44:30;;;;;;;470.48;445.90;;;18.40;99.90;;;;;;5052318;28;20388;-60
2022/07/16 09:47:03;;;;;;;537.13;507.77;;;18.70;99.80;;;;;;5052795;28;20128;-60
2022/07/16 09:49:32;;;;;;;498.58;472.38;;;18.80;98.40;;;;;;5052542;28;20107;-60
2022/07/16 09:51:58;;;;;;;593.25;556.22;;;18.90;98.50;;;;;;5042501;28;20041;-60
2022/07/16 09:54:29;;;;;;;537.17;508.60;;;19.00;98.50;;;;;;5041377;28;20053;-60
2022/07/16 09:57:06;;;;;;;491.92;463.50;;;18.80;98.00;;;;;;5040926;28;20082;-60
2022/07/16 09:59:33;;;;;;;447.35;425.40;;;18.50;97.60;;;;;;5044564;28;20379;-59
2022/07/16 10:02:01;;;;;;;1999.90;999.90;;;18.50;99.30;;;;;;5045966;28;20509;-60
2022/07/16 10:04:28;;;;;;;1999.90;999.90;;;18.80;98.70;;;;;;5044981;28;20040;-60
2022/07/16 10:06:54;;;;;;;1999.90;999.90;;;19.00;99.10;;;;;;5032264;28;20041;-59
2022/07/16 10:09:20;;;;;;;1999.90;999.90;;;19.30;98.10;;;;;;5050856;28;20045;-59
2022/07/16 10:11:47;;;;;;;1999.90;999.90;;;19.40;96.40;;;;;;5049850;28;20049;-59
2022/07/16 10:14:13;;;;;;;1999.90;999.90;;;19.30;97.90;;;;;;5051887;28;20051;-59
2022/07/16 10:16:41;;;;;;;1999.90;999.90;;;19.30;98.10;;;;;;5049094;28;20499;-59
2022/07/16 10:19:08;;;;;;;1999.90;999.90;;;19.30;98.20;;;;;;5050696;28;20044;-59
2022/07/16 10:21:34;;;;;;;1999.90;999.90;;;19.40;98.80;;;;;;5063549;28;20045;-59
2022/07/16 10:24:07;;;;;;;350.00;330.35;;;19.40;98.30;;;;;;5052474;28;20032;-60
2022/07/16 10:26:34;;;;;;;1999.90;999.90;;;19.50;99.00;;;;;;5038703;28;20073;-60
2022/07/16 10:29:01;;;;;;;1999.90;999.90;;;19.70;98.30;;;;;;5045568;28;20071;-59
2022/07/16 10:31:31;;;;;;;361.70;339.83;;;19.80;98.10;;;;;;5052319;28;20114;-60
2022/07/16 10:34:31;;;;;;;1999.90;999.90;;;19.60;98.90;;;;;;5051956;28;20063;-60
2022/07/16 10:36:57;;;;;;;382.48;359.92;;;19.50;98.70;;;;;;5049307;28;20076;-60
2022/07/16 10:39:24;;;;;;;349.17;322.48;;;19.30;99.20;;;;;;5070940;28;20095;-60
2022/07/16 10:41:52;;;;;;;567.03;534.78;;;19.10;99.50;;;;;;5081838;28;20071;-60
2022/07/16 10:44:19;;;;;;;609.35;574.45;;;18.90;99.90;;;;;;5056784;28;20489;-60
2022/07/16 10:46:54;;;;;;;625.47;589.15;;;18.90;99.90;;;;;;5077384;28;20047;-60
2022/07/16 10:49:21;;;;;;;1624.38;865.45;;;19.10;99.90;;;;;;5071462;28;20036;-60
2022/07/16 10:51:57;;;;;;;1619.75;862.42;;;19.60;99.90;;;;;;5066871;28;20041;-60
2022/07/16 10:54:25;;;;;;;1598.50;842.78;;;20.40;98.70;;;;;;5070488;28;20139;-60
2022/07/16 10:56:51;;;;;;;1174.15;664.60;;;;;;;;;;5072375;28;20450;-60
2022/07/16 10:59:20;;;;;;;363.52;344.52;;;21.50;96.90;;;;;;5072078;28;20095;-60
2022/07/16 11:01:48;;;;;;;1214.40;704.03;;;21.20;96.30;;;;;;5068576;28;20072;-60
2022/07/16 11:04:15;;;;;;;1603.93;848.15;;;20.80;96.90;;;;;;5071475;28;20123;-60
2022/07/16 11:06:47;;;;;;;1205.50;694.00;;;20.90;96.80;;;;;;5072167;28;20102;-60
2022/07/16 11:09:14;;;;;;;1999.90;999.90;;;21.00;94.90;;;;;;5069060;28;20072;-60
2022/07/16 11:11:41;;;;;;;1572.78;818.63;;;21.40;93.30;;;;;;5071389;28;20088;-60
2022/07/16 11:14:09;;;;;;;1999.90;999.90;;;21.80;93.20;;;;;;5071697;28;20040;-60
2022/07/16 11:16:36;;;;;;;1549.50;796.60;;;21.80;91.30;;;;;;5065291;28;20041;-60
2022/07/16 11:19:04;;;;;;;1999.90;999.90;;;21.40;92.60;;;;;;5058496;28;20746;-60
2022/07/16 11:21:31;;;;;;;403.08;382.80;;;21.20;91.50;;;;;;5056929;28;20102;-60
2022/07/16 11:23:59;;;;;;;1139.30;632.15;;;20.70;92.70;;;;;;5052963;28;20430;-60
2022/07/16 11:26:25;;;;;;;;;;;20.40;94.30;;;;;;5061613;28;19924;-60
2022/07/16 11:28:58;;;;;;;1999.90;999.90;;;20.60;93.50;;;;;;5059067;28;19921;-60
2022/07/16 11:31:27;;;;;;;1617.90;860.90;;;20.50;93.80;;;;;;5057912;28;20079;-60
2022/07/16 11:33:56;;;;;;;344.98;325.20;;;20.80;94.20;;;;;;5072219;28;20053;-59
2022/07/16 11:36:27;;;;;;;1999.90;999.90;;;21.20;92.50;;;;;;5052993;28;20564;-60
2022/07/16 11:39:03;;;;;;;1999.90;999.90;;;21.20;90.90;;;;;;5090077;28;20044;-60
2022/07/16 11:41:31;;;;;;;1572.47;818.55;;;21.10;92.20;;;;;;5072641;28;20561;-60
2022/07/16 11:43:57;;;;;;;1583.25;828.88;;;20.80;91.30;;;;;;5073973;28;20067;-60
2022/07/16 11:46:26;;;;;;;1615.05;859.28;;;20.90;91.30;;;;;;5061793;28;20044;-60
2022/07/16 11:48:52;;;;;;;1999.90;999.90;;;20.80;91.10;;;;;;5073906;28;20032;-60
2022/07/16 11:51:18;;;;;;;1593.45;838.38;;;20.40;91.60;;;;;;5073625;28;20044;-60
2022/07/16 11:53:52;;;;;;;328.73;312.38;;;20.40;90.60;;;;;;5074053;28;20052;-59
2022/07/16 11:56:32;;;;;;;1999.90;999.90;;;20.80;91.20;;;;;;5073966;28;20425;-59
2022/07/16 11:58:58;;;;;;;410.40;390.23;;;21.30;90.00;;;;;;5072980;28;20063;-60
2022/07/16 12:01:24;;;;;;;1999.90;999.90;;;21.30;88.10;;;;;;5073810;28;20040;-60
2022/07/16 12:03:54;;;;;;;;;;;20.90;88.30;;;;;;5074890;28;19925;-60
2022/07/16 12:06:19;;;;;;;;;;;20.70;88.30;;;;;;5072925;28;19951;-59
2022/07/16 12:08:53;;;;;;;;;;;20.70;86.70;;;;;;5075449;28;19925;-60
2022/07/16 12:11:19;;;;;;;261.80;249.00;;;21.20;85.40;;;;;;5068410;28;19974;-60
2022/07/16 12:13:52;;;;;;;;;;;21.50;79.80;;;;;;5072117;28;20053;-59
2022/07/16 12:16:18;;;;;;;;;;;21.20;79.30;;;;;;5071184;28;19970;-60
2022/07/16 12:18:59;;;;;;;;;;;21.10;81.80;;;;;;5065129;28;19999;-60